Time,TemperatureF,DewpointF,PressureIn,WindDirection,WindDirectionDegrees,WindSpeedMPH,WindSpeedGustMPH,Humidity,HourlyPrecipIn,Conditions,Clouds,dailyrainin,SoftwareType,DateUTC
2013-01-09 00:00:00,49.6,27.4,30.50,ENE,77,1.0,7.0,42,0.00,,,0.00,Wunderground v.1.15,2013-01-09 08:00:00,
2013-01-09 00:05:00,48.8,27.3,30.50,ENE,77,2.0,7.0,43,0.00,,,0.00,Wunderground v.1.15,2013-01-09 08:05:00,
2013-01-09 00:15:00,49.1,27.5,30.50,ENE,73,2.0,4.0,43,0.00,,,0.00,Wunderground v.1.15,2013-01-09 08:15:00,
2013-01-09 00:20:00,49.9,27.7,30.50,NE,56,3.0,3.0,42,0.00,,,0.00,Wunderground v.1.15,2013-01-09 08:20:00,
2013-01-09 00:30:00,50.3,28.1,30.50,NE,47,3.0,3.0,42,0.00,,,0.00,Wunderground v.1.15,2013-01-09 08:30:00,
2013-01-09 00:35:00,49.7,28.1,30.49,NE,47,2.0,5.0,43,0.00,,,0.00,Wunderground v.1.15,2013-01-09 08:35:00,
2013-01-09 00:40:00,50.0,27.8,30.50,NE,47,1.0,1.0,42,0.00,,,0.00,Wunderground v.1.15,2013-01-09 08:40:00,
2013-01-09 00:45:00,49.8,28.2,30.50,NE,48,1.0,5.0,43,0.00,,,0.00,Wunderground v.1.15,2013-01-09 08:45:00,
2013-01-09 00:50:00,49.6,28.0,30.50,NE,48,2.0,2.0,43,0.00,,,0.00,Wunderground v.1.15,2013-01-09 08:50:00,
2013-01-09 01:00:00,50.5,28.2,30.50,NE,46,1.0,1.0,42,0.00,,,0.00,Wunderground v.1.15,2013-01-09 09:00:00,
2013-01-09 01:05:00,50.4,28.1,30.50,NE,46,1.0,5.0,42,0.00,,,0.00,Wunderground v.1.15,2013-01-09 09:05:00,
2013-01-09 01:15:00,49.9,28.3,30.50,NE,46,1.0,5.0,43,0.00,,,0.00,Wunderground v.1.15,2013-01-09 09:15:00,
2013-01-09 01:20:00,49.9,28.3,30.50,NE,46,0.0,5.0,43,0.00,,,0.00,Wunderground v.1.15,2013-01-09 09:20:00,
2013-01-09 01:30:00,49.0,28.0,30.50,NE,46,1.0,5.0,44,0.00,,,0.00,Wunderground v.1.15,2013-01-09 09:30:00,
2013-01-09 01:35:00,49.1,28.1,30.49,NE,47,2.0,5.0,44,0.00,,,0.00,Wunderground v.1.15,2013-01-09 09:35:00,
2013-01-09 01:45:00,49.2,28.2,30.50,NE,47,1.0,3.0,44,0.00,,,0.00,Wunderground v.1.15,2013-01-09 09:45:00,
2013-01-09 01:50:00,49.3,28.3,30.50,NE,55,2.0,2.0,44,0.00,,,0.00,Wunderground v.1.15,2013-01-09 09:50:00,
2013-01-09 02:00:00,49.1,28.1,30.50,ENE,60,1.0,1.0,44,0.00,,,0.00,Wunderground v.1.15,2013-01-09 10:00:00,
2013-01-09 02:10:00,49.6,28.0,30.50,ENE,60,2.0,6.0,43,0.00,,,0.00,Wunderground v.1.15,2013-01-09 10:10:00,
2013-01-09 02:15:00,49.1,28.1,30.50,ENE,60,3.0,6.0,44,0.00,,,0.00,Wunderground v.1.15,2013-01-09 10:15:00,
2013-01-09 02:20:00,48.3,27.9,30.49,ENE,62,3.0,6.0,45,0.00,,,0.00,Wunderground v.1.15,2013-01-09 10:20:00,
2013-01-09 02:30:00,48.6,28.2,30.49,ENE,74,5.0,5.0,45,0.00,,,0.00,Wunderground v.1.15,2013-01-09 10:30:00,
2013-01-09 02:35:00,48.4,28.0,30.49,ENE,74,4.0,8.0,45,0.00,,,0.00,Wunderground v.1.15,2013-01-09 10:35:00,
2013-01-09 02:40:00,48.4,28.0,30.49,ENE,74,1.0,8.0,45,0.00,,,0.00,Wunderground v.1.15,2013-01-09 10:40:00,
2013-01-09 02:45:00,48.7,28.3,30.49,ENE,74,2.0,8.0,45,0.00,,,0.00,Wunderground v.1.15,2013-01-09 10:45:00,
2013-01-09 02:50:00,48.7,28.3,30.49,ENE,74,1.0,1.0,45,0.00,,,0.00,Wunderground v.1.15,2013-01-09 10:50:00,
2013-01-09 03:00:00,48.9,28.5,30.49,ENE,74,1.0,1.0,45,0.00,,,0.00,Wunderground v.1.15,2013-01-09 11:00:00,
2013-01-09 03:05:00,49.1,28.1,30.49,ENE,74,0.0,6.0,44,0.00,,,0.00,Wunderground v.1.15,2013-01-09 11:05:00,
2013-01-09 03:15:00,48.9,28.5,30.49,ENE,74,3.0,6.0,45,0.00,,,0.00,Wunderground v.1.15,2013-01-09 11:15:00,
2013-01-09 03:20:00,48.5,28.1,30.48,ENE,74,3.0,3.0,45,0.00,,,0.00,Wunderground v.1.15,2013-01-09 11:20:00,
2013-01-09 07:20:00,45.1,28.0,30.48,East,89,5.0,9.0,51,0.00,,,0.00,Wunderground v.1.15,2013-01-09 15:20:00,
2013-01-09 07:30:00,45.0,28.4,30.49,East,84,5.0,9.0,52,0.00,,,0.00,Wunderground v.1.15,2013-01-09 15:30:00,
2013-01-09 07:35:00,44.7,28.6,30.49,East,84,5.0,9.0,53,0.00,,,0.00,Wunderground v.1.15,2013-01-09 15:35:00,
2013-01-09 07:45:00,44.6,29.0,30.49,East,84,5.0,6.0,54,0.00,,,0.00,Wunderground v.1.15,2013-01-09 15:45:00,
2013-01-09 07:50:00,44.9,28.8,30.49,East,84,5.0,8.0,53,0.00,,,0.00,Wunderground v.1.15,2013-01-09 15:50:00,
2013-01-09 08:00:00,47.3,29.1,30.49,East,84,5.0,8.0,49,0.00,,,0.00,Wunderground v.1.15,2013-01-09 16:00:00,
2013-01-09 08:05:00,48.3,29.0,30.50,East,84,4.0,9.0,47,0.00,,,0.00,Wunderground v.1.15,2013-01-09 16:05:00,
2013-01-09 08:15:00,49.3,29.4,30.50,East,84,3.0,9.0,46,0.00,,,0.00,Wunderground v.1.15,2013-01-09 16:15:00,
2013-01-09 08:20:00,49.5,29.6,30.50,East,84,3.0,9.0,46,0.00,,,0.00,Wunderground v.1.15,2013-01-09 16:20:00,
2013-01-09 08:25:00,49.7,30.3,30.50,East,84,2.0,9.0,47,0.00,,,0.00,Wunderground v.1.15,2013-01-09 16:25:00,
2013-01-09 08:30:00,49.8,30.4,30.50,East,84,1.0,1.0,47,0.00,,,0.00,Wunderground v.1.15,2013-01-09 16:30:00,
2013-01-09 08:35:00,50.6,31.1,30.50,East,84,1.0,6.0,47,0.00,,,0.00,Wunderground v.1.15,2013-01-09 16:35:00,
2013-01-09 08:45:00,53.1,30.6,30.50,East,84,0.0,6.0,42,0.00,,,0.00,Wunderground v.1.15,2013-01-09 16:45:00,
2013-01-09 08:50:00,54.1,29.7,30.50,East,84,0.0,6.0,39,0.00,,,0.00,Wunderground v.1.15,2013-01-09 16:50:00,
2013-01-09 09:00:00,54.8,30.3,30.50,East,84,0.0,6.0,39,0.00,,,0.00,Wunderground v.1.15,2013-01-09 17:00:00,
2013-01-09 09:05:00,55.1,30.6,30.50,East,84,0.0,6.0,39,0.00,,,0.00,Wunderground v.1.15,2013-01-09 17:05:00,
2013-01-09 09:10:00,55.2,29.4,30.50,East,84,0.0,0.0,37,0.00,,,0.00,Wunderground v.1.15,2013-01-09 17:10:00,
2013-01-09 09:15:00,55.4,29.5,30.50,East,84,0.0,0.0,37,0.00,,,0.00,Wunderground v.1.15,2013-01-09 17:15:00,
2013-01-09 09:20:00,55.6,30.4,30.50,East,84,0.0,0.0,38,0.00,,,0.00,Wunderground v.1.15,2013-01-09 17:20:00,
2013-01-09 09:30:00,56.0,28.7,30.50,East,84,0.0,1.0,35,0.00,,,0.00,Wunderground v.1.15,2013-01-09 17:30:00,
2013-01-09 09:35:00,56.1,30.2,30.49,East,84,0.0,3.0,37,0.00,,,0.00,Wunderground v.1.15,2013-01-09 17:35:00,
2013-01-09 09:45:00,56.0,29.4,30.49,East,84,0.0,3.0,36,0.00,,,0.00,Wunderground v.1.15,2013-01-09 17:45:00,
2013-01-09 09:50:00,56.2,29.6,30.48,East,84,0.0,3.0,36,0.00,,,0.00,Wunderground v.1.15,2013-01-09 17:50:00,
2013-01-09 10:00:00,56.9,30.2,30.48,East,84,0.0,3.0,36,0.00,,,0.00,Wunderground v.1.15,2013-01-09 18:00:00,
2013-01-09 10:10:00,57.4,29.2,30.48,East,84,0.0,1.0,34,0.00,,,0.00,Wunderground v.1.15,2013-01-09 18:10:00,
2013-01-09 10:15:00,57.8,29.6,30.47,East,84,0.0,1.0,34,0.00,,,0.00,Wunderground v.1.15,2013-01-09 18:15:00,
2013-01-09 10:20:00,58.0,29.8,30.47,East,84,0.0,1.0,34,0.00,,,0.00,Wunderground v.1.15,2013-01-09 18:20:00,
2013-01-09 10:30:00,58.6,29.6,30.46,East,84,0.0,1.0,33,0.00,,,0.00,Wunderground v.1.15,2013-01-09 18:30:00,
2013-01-09 10:35:00,58.8,29.7,30.46,East,84,0.0,3.0,33,0.00,,,0.00,Wunderground v.1.15,2013-01-09 18:35:00,
2013-01-09 10:45:00,59.5,28.8,30.45,East,89,0.0,3.0,31,0.00,,,0.00,Wunderground v.1.15,2013-01-09 18:45:00,
2013-01-09 10:50:00,60.0,28.4,30.45,SE,142,2.0,3.0,30,0.00,,,0.00,Wunderground v.1.15,2013-01-09 18:50:00,
2013-01-09 10:55:00,59.7,28.2,30.44,SSE,148,4.0,5.0,30,0.00,,,0.00,Wunderground v.1.15,2013-01-09 18:55:00,
2013-01-09 11:00:00,60.0,28.4,30.44,SSE,148,5.0,5.0,30,0.00,,,0.00,Wunderground v.1.15,2013-01-09 19:00:00,
2013-01-09 11:05:00,60.7,27.4,30.43,ESE,111,5.0,6.0,28,0.00,,,0.00,Wunderground v.1.15,2013-01-09 19:05:00,
2013-01-09 11:15:00,60.6,27.3,30.43,ESE,110,8.0,10.0,28,0.00,,,0.00,Wunderground v.1.15,2013-01-09 19:15:00,
2013-01-09 11:20:00,60.7,27.4,30.43,SE,129,7.0,7.0,28,0.00,,,0.00,Wunderground v.1.15,2013-01-09 19:20:00,
2013-01-09 11:30:00,60.6,27.3,30.42,ESE,103,7.0,10.0,28,0.00,,,0.00,Wunderground v.1.15,2013-01-09 19:30:00,
2013-01-09 11:35:00,60.4,27.1,30.42,ESE,122,8.0,14.0,28,0.00,,,0.00,Wunderground v.1.15,2013-01-09 19:35:00,
2013-01-09 11:45:00,60.6,28.1,30.41,ESE,102,7.0,14.0,29,0.00,,,0.00,Wunderground v.1.15,2013-01-09 19:45:00,
2013-01-09 11:50:00,61.4,28.0,30.41,ESE,123,4.0,14.0,28,0.00,,,0.00,Wunderground v.1.15,2013-01-09 19:50:00,
2013-01-09 12:00:00,60.5,28.1,30.40,SE,134,6.0,6.0,29,0.00,,,0.00,Wunderground v.1.15,2013-01-09 20:00:00,
2013-01-09 12:05:00,60.5,28.1,30.40,SE,131,7.0,7.0,29,0.00,,,0.00,Wunderground v.1.15,2013-01-09 20:05:00,
2013-01-09 12:15:00,60.4,27.1,30.40,SE,145,9.0,14.0,28,0.00,,,0.00,Wunderground v.1.15,2013-01-09 20:15:00,
2013-01-09 12:20:00,60.7,27.4,30.39,SSE,160,9.0,9.0,28,0.00,,,0.00,Wunderground v.1.15,2013-01-09 20:20:00,
2013-01-09 12:25:00,60.7,27.4,30.39,SE,143,8.0,14.0,28,0.00,,,0.00,Wunderground v.1.15,2013-01-09 20:25:00,
2013-01-09 12:35:00,60.4,27.1,30.39,ESE,114,9.0,17.0,28,0.00,,,0.00,Wunderground v.1.15,2013-01-09 20:35:00,
2013-01-09 12:45:00,60.7,27.4,30.38,ESE,123,8.0,17.0,28,0.00,,,0.00,Wunderground v.1.15,2013-01-09 20:45:00,
2013-01-09 12:50:00,61.5,28.1,30.38,ESE,120,6.0,6.0,28,0.00,,,0.00,Wunderground v.1.15,2013-01-09 20:50:00,
2013-01-09 13:00:00,62.4,27.9,30.37,SSE,158,5.0,17.0,27,0.00,,,0.00,Wunderground v.1.15,2013-01-09 21:00:00,
2013-01-09 13:05:00,62.0,27.6,30.37,South,171,6.0,17.0,27,0.00,,,0.00,Wunderground v.1.15,2013-01-09 21:05:00,
2013-01-09 13:15:00,61.6,27.3,30.37,East,94,7.0,12.0,27,0.00,,,0.00,Wunderground v.1.15,2013-01-09 21:15:00,
2013-01-09 13:20:00,61.1,27.7,30.36,ESE,107,9.0,9.0,28,0.00,,,0.00,Wunderground v.1.15,2013-01-09 21:20:00,
2013-01-09 13:30:00,61.0,27.6,30.36,ESE,112,9.0,15.0,28,0.00,,,0.00,Wunderground v.1.15,2013-01-09 21:30:00,
2013-01-09 13:35:00,61.2,27.8,30.36,East,84,9.0,16.0,28,0.00,,,0.00,Wunderground v.1.15,2013-01-09 21:35:00,
2013-01-09 13:40:00,61.2,27.8,30.36,East,98,9.0,9.0,28,0.00,,,0.00,Wunderground v.1.15,2013-01-09 21:40:00,
2013-01-09 13:45:00,60.7,27.4,30.35,East,94,10.0,10.0,28,0.00,,,0.00,Wunderground v.1.15,2013-01-09 21:45:00,
2013-01-09 13:50:00,60.3,27.0,30.35,East,94,12.0,16.0,28,0.00,,,0.00,Wunderground v.1.15,2013-01-09 21:50:00,
2013-01-09 14:00:00,60.8,27.5,30.35,SE,125,10.0,10.0,28,0.00,,,0.00,Wunderground v.1.15,2013-01-09 22:00:00,
2013-01-09 14:05:00,60.7,27.4,30.35,East,84,10.0,19.0,28,0.00,,,0.00,Wunderground v.1.15,2013-01-09 22:05:00,
2013-01-09 14:15:00,60.4,27.1,30.35,ESE,120,10.0,19.0,28,0.00,,,0.00,Wunderground v.1.15,2013-01-09 22:15:00,
2013-01-09 14:20:00,60.7,27.4,30.35,East,94,9.0,9.0,28,0.00,,,0.00,Wunderground v.1.15,2013-01-09 22:20:00,
2013-01-09 14:25:00,60.7,28.2,30.35,SSE,155,8.0,19.0,29,0.00,,,0.00,Wunderground v.1.15,2013-01-09 22:25:00,
2013-01-09 14:35:00,60.5,28.1,30.35,ESE,119,5.0,19.0,29,0.00,,,0.00,Wunderground v.1.15,2013-01-09 22:35:00,
2013-01-09 14:45:00,59.8,27.4,30.35,ESE,122,7.0,8.0,29,0.00,,,0.00,Wunderground v.1.15,2013-01-09 22:45:00,
2013-01-09 14:50:00,59.5,28.0,30.35,SE,125,7.0,15.0,30,0.00,,,0.00,Wunderground v.1.15,2013-01-09 22:50:00,
2013-01-09 14:55:00,59.7,28.2,30.35,SE,132,7.0,15.0,30,0.00,,,0.00,Wunderground v.1.15,2013-01-09 22:55:00,
2013-01-09 15:05:00,59.1,27.7,30.35,ESE,109,9.0,9.0,30,0.00,,,0.00,Wunderground v.1.15,2013-01-09 23:05:00,
2013-01-09 15:15:00,58.8,27.4,30.35,ESE,110,7.0,16.0,30,0.00,,,0.00,Wunderground v.1.15,2013-01-09 23:15:00,
2013-01-09 15:20:00,58.6,28.0,30.34,SSE,151,6.0,6.0,31,0.00,,,0.00,Wunderground v.1.15,2013-01-09 23:20:00,
2013-01-09 15:30:00,57.7,27.2,30.34,ESE,103,6.0,16.0,31,0.00,,,0.00,Wunderground v.1.15,2013-01-09 23:30:00,
2013-01-09 15:35:00,57.5,27.1,30.34,East,101,7.0,16.0,31,0.00,,,0.00,Wunderground v.1.15,2013-01-09 23:35:00,
2013-01-09 15:45:00,57.6,27.2,30.34,SE,131,5.0,14.0,31,0.00,,,0.00,Wunderground v.1.15,2013-01-09 23:45:00,
2013-01-09 15:50:00,57.7,27.2,30.34,SE,144,4.0,4.0,31,0.00,,,0.00,Wunderground v.1.15,2013-01-09 23:50:00,
2013-01-09 15:55:00,57.7,27.2,30.34,SE,132,4.0,6.0,31,0.00,,,0.00,Wunderground v.1.15,2013-01-09 23:55:00,
2013-01-09 16:00:00,57.6,27.2,30.33,SE,133,4.0,4.0,31,0.00,,,0.00,Wunderground v.1.15,2013-01-10 00:00:00,
2013-01-09 16:05:00,57.5,27.1,30.33,SE,133,4.0,10.0,31,0.00,,,0.00,Wunderground v.1.15,2013-01-10 00:05:00,
2013-01-09 16:15:00,57.2,26.8,30.32,ESE,103,7.0,11.0,31,0.00,,,0.00,Wunderground v.1.15,2013-01-10 00:15:00,
2013-01-09 16:20:00,56.8,27.2,30.33,SE,134,8.0,8.0,32,0.00,,,0.00,Wunderground v.1.15,2013-01-10 00:20:00,
2013-01-09 16:30:00,56.8,27.2,30.33,ESE,123,6.0,6.0,32,0.00,,,0.00,Wunderground v.1.15,2013-01-10 00:30:00,
2013-01-09 16:35:00,56.7,27.1,30.32,SSE,153,5.0,8.0,32,0.00,,,0.00,Wunderground v.1.15,2013-01-10 00:35:00,
2013-01-09 16:45:00,56.0,27.3,30.32,SE,133,5.0,14.0,33,0.00,,,0.00,Wunderground v.1.15,2013-01-10 00:45:00,
2013-01-09 16:50:00,55.7,27.0,30.32,SSE,160,5.0,5.0,33,0.00,,,0.00,Wunderground v.1.15,2013-01-10 00:50:00,
2013-01-09 17:00:00,55.3,27.4,30.32,SE,138,5.0,5.0,34,0.00,,,0.00,Wunderground v.1.15,2013-01-10 01:00:00,
2013-01-09 17:05:00,55.0,27.1,30.32,SE,139,4.0,10.0,34,0.00,,,0.00,Wunderground v.1.15,2013-01-10 01:05:00,
2013-01-09 17:15:00,54.3,27.9,30.31,South,177,3.0,10.0,36,0.00,,,0.00,Wunderground v.1.15,2013-01-10 01:15:00,
2013-01-09 17:20:00,54.2,27.8,30.31,SE,143,4.0,10.0,36,0.00,,,0.00,Wunderground v.1.15,2013-01-10 01:20:00,
2013-01-09 17:30:00,54.1,28.4,30.31,South,171,4.0,4.0,37,0.00,,,0.00,Wunderground v.1.15,2013-01-10 01:30:00,
2013-01-09 17:35:00,53.8,28.8,30.31,South,188,4.0,10.0,38,0.00,,,0.00,Wunderground v.1.15,2013-01-10 01:35:00,
2013-01-09 17:40:00,53.6,28.6,30.31,SSE,164,4.0,4.0,38,0.00,,,0.00,Wunderground v.1.15,2013-01-10 01:40:00,
2013-01-09 17:45:00,53.5,29.1,30.31,SSE,164,3.0,10.0,39,0.00,,,0.00,Wunderground v.1.15,2013-01-10 01:45:00,
2013-01-09 17:50:00,53.3,28.9,30.31,SSE,164,2.0,2.0,39,0.00,,,0.00,Wunderground v.1.15,2013-01-10 01:50:00,
2013-01-09 18:00:00,52.9,29.2,30.31,SSE,164,1.0,10.0,40,0.00,,,0.00,Wunderground v.1.15,2013-01-10 02:00:00,
2013-01-09 18:05:00,52.9,29.2,30.31,SSE,162,1.0,11.0,40,0.00,,,0.00,Wunderground v.1.15,2013-01-10 02:05:00,
2013-01-09 18:15:00,53.6,29.2,30.31,SE,144,5.0,11.0,39,0.00,,,0.00,Wunderground v.1.15,2013-01-10 02:15:00,
2013-01-09 18:20:00,53.8,28.8,30.31,SE,127,5.0,5.0,38,0.00,,,0.00,Wunderground v.1.15,2013-01-10 02:20:00,
2013-01-09 18:30:00,53.8,28.8,30.31,SSE,156,5.0,11.0,38,0.00,,,0.00,Wunderground v.1.15,2013-01-10 02:30:00,
2013-01-09 18:35:00,53.8,28.8,30.31,ESE,123,5.0,13.0,38,0.00,,,0.00,Wunderground v.1.15,2013-01-10 02:35:00,
2013-01-09 18:45:00,54.1,28.4,30.30,SE,127,5.0,13.0,37,0.00,,,0.00,Wunderground v.1.15,2013-01-10 02:45:00,
2013-01-09 18:50:00,54.3,28.6,30.30,South,171,6.0,6.0,37,0.00,,,0.00,Wunderground v.1.15,2013-01-10 02:50:00,
2013-01-09 19:00:00,53.2,29.5,30.30,South,181,2.0,2.0,40,0.00,,,0.00,Wunderground v.1.15,2013-01-10 03:00:00,
2013-01-09 19:05:00,52.5,29.5,30.29,South,181,1.0,14.0,41,0.00,,,0.00,Wunderground v.1.15,2013-01-10 03:05:00,
2013-01-09 19:15:00,51.5,29.1,30.29,South,181,0.0,14.0,42,0.00,,,0.00,Wunderground v.1.15,2013-01-10 03:15:00,
2013-01-09 19:20:00,51.2,28.9,30.29,South,181,0.0,14.0,42,0.00,,,0.00,Wunderground v.1.15,2013-01-10 03:20:00,
2013-01-09 19:30:00,52.6,28.9,30.28,ESE,108,2.0,14.0,40,0.00,,,0.00,Wunderground v.1.15,2013-01-10 03:30:00,
2013-01-09 19:35:00,53.8,29.4,30.28,SE,141,6.0,18.0,39,0.00,,,0.00,Wunderground v.1.15,2013-01-10 03:35:00,
2013-01-09 19:40:00,53.9,29.5,30.28,SSE,156,7.0,18.0,39,0.00,,,0.00,Wunderground v.1.15,2013-01-10 03:40:00,
2013-01-09 19:45:00,53.9,28.8,30.28,SE,125,8.0,18.0,38,0.00,,,0.00,Wunderground v.1.15,2013-01-10 03:45:00,
2013-01-09 19:50:00,54.0,28.9,30.28,SE,140,10.0,10.0,38,0.00,,,0.00,Wunderground v.1.15,2013-01-10 03:50:00,
2013-01-09 20:00:00,53.9,28.8,30.28,SE,137,6.0,6.0,38,0.00,,,0.00,Wunderground v.1.15,2013-01-10 04:00:00,
2013-01-09 20:05:00,53.8,28.8,30.28,SE,144,6.0,7.0,38,0.00,,,0.00,Wunderground v.1.15,2013-01-10 04:05:00,
2013-01-09 20:15:00,54.1,29.0,30.27,SSE,165,9.0,17.0,38,0.00,,,0.00,Wunderground v.1.15,2013-01-10 04:15:00,
2013-01-09 20:20:00,53.5,29.1,30.26,SE,140,9.0,17.0,39,0.00,,,0.00,Wunderground v.1.15,2013-01-10 04:20:00,
2013-01-09 20:30:00,53.8,28.1,30.26,SSE,148,9.0,17.0,37,0.00,,,0.00,Wunderground v.1.15,2013-01-10 04:30:00,
2013-01-09 20:35:00,53.7,28.7,30.25,SE,146,8.0,19.0,38,0.00,,,0.00,Wunderground v.1.15,2013-01-10 04:35:00,
2013-01-09 20:45:00,53.4,27.8,30.25,SE,135,10.0,19.0,37,0.00,,,0.00,Wunderground v.1.15,2013-01-10 04:45:00,
2013-01-09 20:50:00,53.5,27.8,30.25,SSE,153,10.0,19.0,37,0.00,,,0.00,Wunderground v.1.15,2013-01-10 04:50:00,
2013-01-09 21:05:00,53.3,28.3,30.24,SE,136,10.0,21.0,38,0.00,,,0.00,Wunderground v.1.15,2013-01-10 05:05:00,
2013-01-09 21:10:00,53.4,27.8,30.24,SSW,193,10.0,21.0,37,0.00,,,0.00,Wunderground v.1.15,2013-01-10 05:10:00,
2013-01-09 21:15:00,53.5,27.8,30.24,SSE,152,10.0,21.0,37,0.00,,,0.00,Wunderground v.1.15,2013-01-10 05:15:00,
2013-01-09 21:20:00,53.3,27.0,30.24,South,171,11.0,21.0,36,0.00,,,0.00,Wunderground v.1.15,2013-01-10 05:20:00,
2013-01-09 21:25:00,53.3,27.7,30.24,SSE,167,12.0,21.0,37,0.00,,,0.00,Wunderground v.1.15,2013-01-10 05:25:00,
2013-01-09 21:30:00,53.1,27.5,30.24,ESE,107,12.0,12.0,37,0.00,,,0.00,Wunderground v.1.15,2013-01-10 05:30:00,
2013-01-09 21:40:00,53.0,28.0,30.23,SE,146,12.0,25.0,38,0.00,,,0.00,Wunderground v.1.15,2013-01-10 05:40:00,
2013-01-09 21:45:00,53.3,27.7,30.23,SSE,148,12.0,25.0,37,0.00,,,0.00,Wunderground v.1.15,2013-01-10 05:45:00,
2013-01-09 21:50:00,53.2,27.6,30.23,SE,144,13.0,25.0,37,0.00,,,0.00,Wunderground v.1.15,2013-01-10 05:50:00,
2013-01-09 22:00:00,53.5,27.2,30.22,SSE,153,14.0,25.0,36,0.00,,,0.00,Wunderground v.1.15,2013-01-10 06:00:00,
2013-01-09 22:05:00,53.1,26.8,30.22,SSE,154,15.0,28.0,36,0.00,,,0.00,Wunderground v.1.15,2013-01-10 06:05:00,
2013-01-09 22:15:00,53.2,26.9,30.22,SSE,150,17.0,28.0,36,0.00,,,0.00,Wunderground v.1.15,2013-01-10 06:15:00,
2013-01-09 22:20:00,53.4,27.8,30.21,SSE,161,18.0,28.0,37,0.00,,,0.00,Wunderground v.1.15,2013-01-10 06:20:00,
2013-01-09 22:30:00,53.3,27.7,30.21,ESE,114,20.0,20.0,37,0.00,,,0.00,Wunderground v.1.15,2013-01-10 06:30:00,
2013-01-09 22:35:00,53.4,27.1,30.21,SE,135,20.0,35.0,36,0.00,,,0.00,Wunderground v.1.15,2013-01-10 06:35:00,
2013-01-09 22:45:00,53.5,26.5,30.21,SE,146,19.0,35.0,35,0.00,,,0.00,Wunderground v.1.15,2013-01-10 06:45:00,
2013-01-09 22:50:00,53.5,27.8,30.21,SE,146,19.0,35.0,37,0.00,,,0.00,Wunderground v.1.15,2013-01-10 06:50:00,
2013-01-09 23:00:00,53.3,27.0,30.20,SE,135,20.0,20.0,36,0.00,,,0.00,Wunderground v.1.15,2013-01-10 07:00:00,
2013-01-09 23:05:00,53.1,27.5,30.20,SE,142,19.0,25.0,37,0.00,,,0.00,Wunderground v.1.15,2013-01-10 07:05:00,
2013-01-09 23:15:00,53.0,27.4,30.19,SE,140,20.0,27.0,37,0.00,,,0.00,Wunderground v.1.15,2013-01-10 07:15:00,
2013-01-09 23:20:00,52.8,27.9,30.19,SE,142,20.0,20.0,38,0.00,,,0.00,Wunderground v.1.15,2013-01-10 07:20:00,
2013-01-09 23:30:00,52.8,28.5,30.19,SE,146,20.0,34.0,39,0.00,,,0.00,Wunderground v.1.15,2013-01-10 07:30:00,
2013-01-09 23:35:00,52.4,28.1,30.19,SE,146,19.0,37.0,39,0.00,,,0.00,Wunderground v.1.15,2013-01-10 07:35:00,
2013-01-09 23:45:00,52.6,28.3,30.18,ESE,104,19.0,37.0,39,0.00,,,0.00,Wunderground v.1.15,2013-01-10 07:45:00,
2013-01-09 23:50:00,52.7,27.8,30.18,SE,146,19.0,37.0,38,0.00,,,0.00,Wunderground v.1.15,2013-01-10 07:50:00,